Time;durP1;ratioP1;P1;durP2;ratioP2;P2;SDS_P1;SDS_P2;PMS_P1;PMS_P2;Temp;Humidity;BMP_temperature;BMP_pressure;BME280_temperature;BME280_humidity;BME280_pressure;Samples;Min_cycle;Max_cycle;Signal;HPM_P1;HPM_P2
2021/09/05 00:00:09;;;;;;;5.90;4.82;;;;;;;;;;5075392;28;20193;-84
2021/09/05 00:02:37;;;;;;;6.30;4.78;;;;;;;;;;5075965;28;20189;-85
2021/09/05 00:05:07;;;;;;;7.55;5.57;;;;;;;;;;5076293;28;20674;-85
2021/09/05 00:07:34;;;;;;;5.13;4.35;;;;;;;;;;5075646;28;20189;-85
2021/09/05 00:10:02;;;;;;;4.95;4.45;;;;;;;;;;5075434;28;20201;-85
2021/09/05 00:12:30;;;;;;;5.60;4.50;;;;;;;;;;5076089;28;20192;-84
2021/09/05 00:14:57;;;;;;;5.15;4.65;;;;;;;;;;5075604;28;20232;-83
2021/09/05 00:17:24;;;;;;;6.00;4.82;;;;;;;;;;5075052;28;20576;-86
2021/09/05 00:19:52;;;;;;;6.53;4.70;;;;;;;;;;5089573;28;20566;-85
2021/09/05 00:22:21;;;;;;;7.30;5.30;;;;;;;;;;5095710;28;20173;-84
2021/09/05 00:24:48;;;;;;;5.80;4.82;;;;;;;;;;5095870;28;20200;-85
2021/09/05 00:27:16;;;;;;;5.18;4.68;;;;;;;;;;5095557;28;20240;-85
2021/09/05 00:29:43;;;;;;;5.60;5.05;;;;;;;;;;5081500;28;20190;-85
2021/09/05 00:32:11;;;;;;;6.63;5.43;;;;;;;;;;5074777;28;20188;-85
2021/09/05 00:34:38;;;;;;;18.70;4.25;;;;;;;;;;5074688;28;20201;-85
2021/09/05 00:37:06;;;;;;;6.53;4.68;;;;;;;;;;5074399;28;20220;-84
2021/09/05 00:39:34;;;;;;;6.40;4.85;;;;;;;;;;5089110;28;20189;-86
2021/09/05 00:42:02;;;;;;;4.82;4.43;;;;;;;;;;5095091;28;20180;-85
2021/09/05 00:44:29;;;;;;;4.57;4.15;;;;;;;;;;5094946;28;20581;-85
2021/09/05 00:46:57;;;;;;;4.55;3.97;;;;;;;;;;5095340;28;20220;-85
2021/09/05 00:49:24;;;;;;;4.88;4.35;;;;;;;;;;5082093;28;20389;-85
2021/09/05 00:51:52;;;;;;;4.80;4.30;;;;;;;;;;5075223;28;20190;-86
2021/09/05 00:54:20;;;;;;;5.05;4.10;;;;;;;;;;5075310;28;20228;-86
2021/09/05 00:56:49;;;;;;;5.50;4.65;;;;;;;;;;5076123;28;20723;-86
2021/09/05 00:59:20;;;;;;;5.63;5.03;;;;;;;;;;5074840;28;20585;-83
2021/09/05 01:01:48;;;;;;;5.20;4.57;;;;;;;;;;5074892;28;20196;-86
2021/09/05 01:04:15;;;;;;;5.50;5.00;;;;;;;;;;5074624;28;20192;-85
2021/09/05 01:06:43;;;;;;;6.85;6.03;;;;;;;;;;5075988;28;20217;-85
2021/09/05 01:09:11;;;;;;;5.10;4.70;;;;;;;;;;5075026;28;20192;-84
2021/09/05 01:11:39;;;;;;;5.53;4.93;;;;;;;;;;5074638;28;20197;-84
2021/09/05 01:14:09;;;;;;;5.13;4.63;;;;;;;;;;5079028;28;20215;-84
2021/09/05 01:16:40;;;;;;;5.97;4.78;;;;;;;;;;5094379;28;20220;-84
2021/09/05 01:19:10;;;;;;;6.25;5.65;;;;;;;;;;5094253;28;20215;-85
2021/09/05 01:21:38;;;;;;;5.00;4.55;;;;;;;;;;5094511;28;20195;-84
2021/09/05 01:24:07;;;;;;;7.45;4.80;;;;;;;;;;5091012;28;20199;-85
2021/09/05 01:26:37;;;;;;;6.15;4.78;;;;;;;;;;5074485;28;20830;-85
2021/09/05 01:29:08;;;;;;;5.97;5.38;;;;;;;;;;5074099;28;20208;-84
2021/09/05 01:31:41;;;;;;;5.50;5.00;;;;;;;;;;5074290;28;20661;-85
2021/09/05 01:34:10;;;;;;;5.65;5.13;;;;;;;;;;5076520;28;20191;-85
2021/09/05 01:36:39;;;;;;;6.43;5.25;;;;;;;;;;5094342;28;20216;-85
2021/09/05 01:39:07;;;;;;;8.25;5.97;;;;;;;;;;5094109;28;20653;-85
2021/09/05 01:41:35;;;;;;;5.53;4.82;;;;;;;;;;5094517;28;20515;-85
2021/09/05 01:44:07;;;;;;;5.20;4.70;;;;;;;;;;5077714;28;20189;-85
2021/09/05 01:46:35;;;;;;;8.05;4.80;;;;;;;;;;5073991;28;20233;-85
2021/09/05 01:49:03;;;;;;;5.72;5.13;;;;;;;;;;5077596;28;20889;-85
2021/09/05 01:51:30;;;;;;;7.78;5.53;;;;;;;;;;5094517;28;20183;-86
2021/09/05 01:53:58;;;;;;;6.22;5.13;;;;;;;;;;5097330;28;20243;-84
2021/09/05 01:56:27;;;;;;;6.25;5.50;;;;;;;;;;5098689;28;20269;-84
2021/09/05 01:58:54;;;;;;;6.32;5.28;;;;;;;;;;5084014;28;20643;-84
2021/09/05 02:01:23;;;;;;;6.88;5.32;;;;;;;;;;5077848;28;20201;-86
2021/09/05 02:03:51;;;;;;;7.22;5.43;;;;;;;;;;5078112;28;20196;-84
2021/09/05 02:06:18;;;;;;;6.45;5.18;;;;;;;;;;5077313;28;20217;-84
2021/09/05 02:08:46;;;;;;;6.13;5.10;;;;;;;;;;5091026;28;20188;-86
2021/09/05 02:11:13;;;;;;;7.18;5.55;;;;;;;;;;5078503;28;20204;-86
2021/09/05 02:13:42;;;;;;;6.53;5.82;;;;;;;;;;5078426;28;20185;-85
2021/09/05 02:16:10;;;;;;;9.65;7.15;;;;;;;;;;5077343;28;20221;-86
2021/09/05 02:18:38;;;;;;;6.50;5.82;;;;;;;;;;5077480;28;20192;-84
2021/09/05 02:21:06;;;;;;;5.65;5.15;;;;;;;;;;5077776;28;20196;-86
2021/09/05 02:23:34;;;;;;;5.82;5.22;;;;;;;;;;5077454;28;20201;-86
2021/09/05 02:26:01;;;;;;;7.55;5.53;;;;;;;;;;5077996;28;20231;-85
2021/09/05 02:28:29;;;;;;;7.00;6.22;;;;;;;;;;5077254;28;20217;-85
2021/09/05 02:30:56;;;;;;;6.78;6.07;;;;;;;;;;5077280;28;20209;-86
2021/09/05 02:33:24;;;;;;;6.45;5.82;;;;;;;;;;5077610;28;20212;-85
2021/09/05 02:35:53;;;;;;;6.72;6.07;;;;;;;;;;5077930;28;20231;-84
2021/09/05 02:38:20;;;;;;;6.43;5.78;;;;;;;;;;5077507;28;20178;-85
2021/09/05 02:40:48;;;;;;;6.30;5.63;;;;;;;;;;5077375;28;20197;-86
2021/09/05 02:43:15;;;;;;;6.97;6.32;;;;;;;;;;5077141;28;20195;-85
2021/09/05 02:45:43;;;;;;;6.13;5.53;;;;;;;;;;5077411;28;20209;-85
2021/09/05 02:48:10;;;;;;;8.85;6.45;;;;;;;;;;5077885;28;20186;-85
2021/09/05 02:50:38;;;;;;;6.20;5.50;;;;;;;;;;5077625;28;20193;-84
2021/09/05 02:53:06;;;;;;;7.43;5.85;;;;;;;;;;5076989;28;20217;-83
2021/09/05 02:55:34;;;;;;;7.03;6.35;;;;;;;;;;5076463;28;20239;-85
2021/09/05 02:58:01;;;;;;;11.88;7.07;;;;;;;;;;5076580;28;20658;-84
2021/09/05 03:00:29;;;;;;;7.60;6.72;;;;;;;;;;5075726;28;20204;-85
2021/09/05 03:02:56;;;;;;;8.80;7.32;;;;;;;;;;5074661;28;20201;-85
2021/09/05 03:05:24;;;;;;;13.50;6.72;;;;;;;;;;5075998;28;20189;-85
2021/09/05 03:07:51;;;;;;;8.27;7.35;;;;;;;;;;5076402;28;20581;-84
2021/09/05 03:10:20;;;;;;;8.25;7.10;;;;;;;;;;5076052;28;20182;-86
2021/09/05 03:12:48;;;;;;;9.07;7.22;;;;;;;;;;5076599;28;20184;-84
2021/09/05 03:15:15;;;;;;;10.82;7.50;;;;;;;;;;5076193;28;20201;-85
2021/09/05 03:17:43;;;;;;;7.22;6.45;;;;;;;;;;5075746;28;20191;-86
2021/09/05 03:20:11;;;;;;;5.50;4.97;;;;;;;;;;5075746;28;20211;-85
2021/09/05 03:22:39;;;;;;;7.85;6.75;;;;;;;;;;5076406;28;20653;-85
2021/09/05 03:25:08;;;;;;;7.35;6.65;;;;;;;;;;5076072;28;20200;-85
2021/09/05 03:27:37;;;;;;;6.13;5.50;;;;;;;;;;5075607;28;20197;-86
2021/09/05 03:30:05;;;;;;;6.75;5.53;;;;;;;;;;5075876;28;20576;-84
2021/09/05 03:32:33;;;;;;;7.00;6.25;;;;;;;;;;5076127;28;20200;-86
2021/09/05 03:35:00;;;;;;;9.00;6.78;;;;;;;;;;5074853;28;20200;-86
2021/09/05 03:37:27;;;;;;;9.18;5.90;;;;;;;;;;5075828;28;20224;-85
2021/09/05 03:39:55;;;;;;;6.97;6.28;;;;;;;;;;5075256;28;20212;-86
2021/09/05 03:42:22;;;;;;;8.90;7.47;;;;;;;;;;5075216;28;20207;-83
2021/09/05 03:44:51;;;;;;;9.75;7.95;;;;;;;;;;5074977;28;20193;-85
2021/09/05 03:47:19;;;;;;;9.30;7.45;;;;;;;;;;5074740;28;20218;-84
2021/09/05 03:49:46;;;;;;;8.00;7.10;;;;;;;;;;5075346;28;20189;-86
2021/09/05 03:52:15;;;;;;;8.43;6.85;;;;;;;;;;5074969;28;20197;-85
2021/09/05 03:54:42;;;;;;;7.88;7.07;;;;;;;;;;5034987;28;20556;-85
2021/09/05 03:57:09;;;;;;;12.68;8.30;;;;;;;;;;5034675;28;20576;-85
2021/09/05 03:59:37;;;;;;;8.20;7.40;;;;;;;;;;5034669;28;20198;-84
2021/09/05 04:02:06;;;;;;;9.30;7.60;;;;;;;;;;5040991;28;20196;-85
2021/09/05 04:04:33;;;;;;;12.05;8.60;;;;;;;;;;5055253;28;20206;-85
2021/09/05 04:07:01;;;;;;;8.07;7.05;;;;;;;;;;5054410;28;20228;-86
2021/09/05 04:12:14;;;;;;;10.43;8.45;;;;;;;;;;5052922;28;20239;-85
2021/09/05 04:14:42;;;;;;;13.73;10.18;;;;;;;;;;5054183;28;20174;-86
2021/09/05 04:17:11;;;;;;;9.48;7.75;;;;;;;;;;5054632;28;20232;-85
2021/09/05 04:19:38;;;;;;;9.65;8.68;;;;;;;;;;5054597;28;20202;-84
2021/09/05 04:22:06;;;;;;;9.02;7.63;;;;;;;;;;5054557;28;20178;-86
2021/09/05 04:24:34;;;;;;;8.88;7.28;;;;;;;;;;5055012;28;20193;-85
2021/09/05 04:27:01;;;;;;;11.23;9.32;;;;;;;;;;5055352;28;20221;-85
2021/09/05 04:29:28;;;;;;;10.23;7.72;;;;;;;;;;5054802;28;20205;-86
2021/09/05 04:31:56;;;;;;;9.27;8.25;;;;;;;;;;5049386;28;20199;-86
2021/09/05 04:34:25;;;;;;;9.70;8.40;;;;;;;;;;5035224;28;20198;-85
2021/09/05 04:36:52;;;;;;;9.55;8.55;;;;;;;;;;5034772;28;20230;-84
2021/09/05 04:39:20;;;;;;;11.60;8.98;;;;;;;;;;5036100;28;20671;-84
2021/09/05 04:41:47;;;;;;;8.13;7.25;;;;;;;;;;5034264;28;20206;-86
2021/09/05 04:44:15;;;;;;;8.88;7.30;;;;;;;;;;5034817;28;20186;-86
2021/09/05 04:46:42;;;;;;;10.27;8.63;;;;;;;;;;5034937;28;20218;-84
2021/09/05 04:49:10;;;;;;;11.15;7.85;;;;;;;;;;5037625;28;20183;-85
2021/09/05 04:51:39;;;;;;;8.77;7.30;;;;;;;;;;5055343;28;20192;-86
2021/09/05 04:54:06;;;;;;;8.68;6.70;;;;;;;;;;5070029;28;20225;-86
2021/09/05 04:56:34;;;;;;;9.18;7.57;;;;;;;;;;5074376;28;20759;-86
2021/09/05 04:59:01;;;;;;;9.70;7.47;;;;;;;;;;5074409;28;20189;-85
2021/09/05 05:01:29;;;;;;;9.27;7.97;;;;;;;;;;5074358;28;20174;-85
2021/09/05 05:03:56;;;;;;;11.60;8.60;;;;;;;;;;5074843;28;20288;-86
2021/09/05 05:06:24;;;;;;;10.32;7.55;;;;;;;;;;5074013;28;20216;-86
2021/09/05 05:08:53;;;;;;;12.20;8.95;;;;;;;;;;5074000;28;20192;-87
2021/09/05 05:11:21;;;;;;;9.07;8.15;;;;;;;;;;5074242;28;20564;-85
2021/09/05 05:13:48;;;;;;;9.50;8.18;;;;;;;;;;5074762;28;20197;-84
2021/09/05 05:16:16;;;;;;;9.18;6.93;;;;;;;;;;5073969;28;20225;-85
2021/09/05 05:18:43;;;;;;;8.82;7.43;;;;;;;;;;5074051;28;20197;-85
2021/09/05 05:21:11;;;;;;;7.65;6.70;;;;;;;;;;5073388;28;20197;-86
2021/09/05 05:23:38;;;;;;;8.98;7.55;;;;;;;;;;5073605;28;20600;-85
2021/09/05 05:26:07;;;;;;;9.00;7.95;;;;;;;;;;5074549;28;20302;-85
2021/09/05 05:28:35;;;;;;;8.70;6.80;;;;;;;;;;5089499;28;20188;-85
2021/09/05 05:31:05;;;;;;;7.60;6.68;;;;;;;;;;5099622;28;20211;-85
2021/09/05 05:33:34;;;;;;;10.85;8.52;;;;;;;;;;5092840;28;20200;-85
2021/09/05 05:36:01;;;;;;;10.82;8.20;;;;;;;;;;5077960;28;20223;-85
2021/09/05 05:38:29;;;;;;;10.75;8.80;;;;;;;;;;5089602;28;20208;-85
2021/09/05 05:41:07;;;;;;;8.63;7.25;;;;;;;;;;5099330;28;20187;-85
2021/09/05 05:43:36;;;;;;;10.93;8.18;;;;;;;;;;5096736;28;20249;-85
2021/09/05 05:46:04;;;;;;;8.23;7.43;;;;;;;;;;5097629;28;20216;-85
2021/09/05 05:48:33;;;;;;;8.73;7.60;;;;;;;;;;5077120;28;20591;-86
2021/09/05 05:51:01;;;;;;;8.52;7.60;;;;;;;;;;5076929;28;20192;-86
2021/09/05 05:53:28;;;;;;;10.70;8.43;;;;;;;;;;5076055;28;20217;-86
2021/09/05 05:55:57;;;;;;;12.13;9.25;;;;;;;;;;5076355;28;20232;-86
2021/09/05 05:58:28;;;;;;;11.35;9.30;;;;;;;;;;5076280;28;20212;-86
2021/09/05 06:01:02;;;;;;;9.70;8.32;;;;;;;;;;5076198;28;20620;-86
2021/09/05 06:03:30;;;;;;;12.02;9.05;;;;;;;;;;5076175;28;20189;-86
2021/09/05 06:05:57;;;;;;;9.63;8.15;;;;;;;;;;5075596;28;20313;-87
2021/09/05 06:08:25;;;;;;;11.27;9.38;;;;;;;;;;5075753;28;20186;-87
2021/09/05 06:10:52;;;;;;;10.70;9.20;;;;;;;;;;5075779;28;20200;-85
2021/09/05 06:13:19;;;;;;;11.63;9.23;;;;;;;;;;5077000;28;20181;-88
2021/09/05 06:15:48;;;;;;;9.68;8.68;;;;;;;;;;5075909;28;20217;-86
2021/09/05 06:18:15;;;;;;;9.25;7.88;;;;;;;;;;5074992;28;20201;-86
2021/09/05 06:20:43;;;;;;;10.90;8.85;;;;;;;;;;5074775;28;20197;-87
2021/09/05 06:23:10;;;;;;;7.65;6.78;;;;;;;;;;5075262;28;20205;-86
2021/09/05 06:25:38;;;;;;;8.57;7.63;;;;;;;;;;5075235;28;20224;-87
2021/09/05 06:28:06;;;;;;;9.52;8.52;;;;;;;;;;5075322;28;20181;-86
2021/09/05 06:30:34;;;;;;;8.82;7.75;;;;;;;;;;5094348;28;20189;-87
2021/09/05 06:33:03;;;;;;;8.00;5.45;;;;;;;;;;5095229;28;20185;-88
2021/09/05 06:35:35;;;;;;;8.23;7.35;;;;;;;;;;5094955;28;20247;-88
2021/09/05 06:38:03;;;;;;;8.50;7.20;;;;;;;;;;5094262;28;20228;-88
2021/09/05 06:40:31;;;;;;;10.00;8.20;;;;;;;;;;5094978;28;20216;-87
2021/09/05 06:42:59;;;;;;;9.90;8.05;;;;;;;;;;5095336;28;20184;-88
2021/09/05 06:45:26;;;;;;;8.85;7.75;;;;;;;;;;5094579;28;20200;-88
2021/09/05 06:47:53;;;;;;;10.30;8.90;;;;;;;;;;5094989;28;20180;-89
2021/09/05 06:50:22;;;;;;;8.40;7.53;;;;;;;;;;5094832;28;20185;-87
2021/09/05 06:52:50;;;;;;;8.50;7.55;;;;;;;;;;5093270;28;20235;-89
2021/09/05 06:55:17;;;;;;;9.50;8.52;;;;;;;;;;5094105;28;20196;-88
2021/09/05 06:57:46;;;;;;;11.23;8.32;;;;;;;;;;5094717;28;20208;-88
2021/09/05 07:03:23;;;;;;;8.23;7.30;;;;;;;;;;5089086;28;20219;-86
2021/09/05 07:06:16;;;;;;;11.20;9.40;;;;;;;;;;5094786;28;20228;-88
2021/09/05 07:08:46;;;;;;;9.40;8.43;;;;;;;;;;5094572;28;20192;-89
2021/09/05 07:11:27;;;;;;;9.38;8.00;;;;;;;;;;5094827;28;20296;-87
2021/09/05 07:14:14;;;;;;;10.02;8.48;;;;;;;;;;5094682;28;20196;-86
2021/09/05 07:16:51;;;;;;;10.38;8.32;;;;;;;;;;5094380;28;20272;-88
2021/09/05 07:19:18;;;;;;;10.43;8.25;;;;;;;;;;5094102;28;20292;-87
2021/09/05 07:21:47;;;;;;;9.93;7.82;;;;;;;;;;5094213;28;20627;-87
2021/09/05 07:27:15;;;;;;;7.22;5.80;;;;;;;;;;5064979;28;20224;-88
2021/09/05 07:29:56;;;;;;;8.73;7.43;;;;;;;;;;5093885;28;20646;-88
2021/09/05 07:32:43;;;;;;;7.13;6.43;;;;;;;;;;5093921;28;20696;-88
2021/09/05 07:35:12;;;;;;;8.02;7.07;;;;;;;;;;5093879;28;20280;-87
2021/09/05 07:37:52;;;;;;;7.45;5.63;;;;;;;;;;5094159;28;20181;-87
2021/09/05 07:40:21;;;;;;;5.22;4.72;;;;;;;;;;5093985;28;20695;-86
2021/09/05 07:42:49;;;;;;;6.38;5.63;;;;;;;;;;5093519;28;20659;-85
2021/09/05 07:45:19;;;;;;;6.13;5.43;;;;;;;;;;5093922;28;20208;-88
2021/09/05 07:47:46;;;;;;;6.05;5.35;;;;;;;;;;5094134;28;20172;-86
2021/09/05 07:50:15;;;;;;;5.97;5.38;;;;;;;;;;5093435;28;20204;-87
2021/09/05 07:52:42;;;;;;;5.57;5.05;;;;;;;;;;5093678;28;20228;-86
2021/09/05 07:55:12;;;;;;;8.02;7.00;;;;;;;;;;5091622;28;20227;-88
2021/09/05 07:57:40;;;;;;;5.25;4.75;;;;;;;;;;5093467;28;20254;-89
2021/09/05 08:00:09;;;;;;;4.70;4.30;;;;;;;;;;5092836;28;20662;-88
2021/09/05 08:02:37;;;;;;;7.68;6.88;;;;;;;;;;5093588;28;20203;-88
2021/09/05 08:05:10;;;;;;;6.22;5.45;;;;;;;;;;5082020;28;20234;-88
2021/09/05 08:07:39;;;;;;;9.00;8.10;;;;;;;;;;5086592;28;20204;-90
2021/09/05 08:10:12;;;;;;;9.10;8.07;;;;;;;;;;5081421;28;20197;-89
2021/09/05 08:12:42;;;;;;;8.38;7.53;;;;;;;;;;5090808;28;20204;-86
2021/09/05 08:15:34;;;;;;;9.80;8.38;;;;;;;;;;5093569;28;20646;-88
2021/09/05 08:18:07;;;;;;;5.78;5.03;;;;;;;;;;5093454;28;20203;-87
2021/09/05 08:20:36;;;;;;;6.40;5.50;;;;;;;;;;5093019;28;20250;-88
2021/09/05 08:23:18;;;;;;;5.50;5.00;;;;;;;;;;5093469;28;20216;-87
2021/09/05 08:25:55;;;;;;;9.93;6.95;;;;;;;;;;5093250;28;20721;-89
2021/09/05 08:28:29;;;;;;;11.48;7.70;;;;;;;;;;5093457;28;20670;-88
2021/09/05 08:30:58;;;;;;;6.97;6.20;;;;;;;;;;5093394;28;20258;-87
2021/09/05 08:33:27;;;;;;;6.57;5.97;;;;;;;;;;5093318;28;20596;-87
2021/09/05 08:35:55;;;;;;;7.43;6.63;;;;;;;;;;5093071;28;20212;-85
2021/09/05 08:38:24;;;;;;;7.28;6.53;;;;;;;;;;5093102;28;20243;-86
2021/09/05 08:40:55;;;;;;;7.60;6.72;;;;;;;;;;5092820;28;20567;-87
2021/09/05 08:43:25;;;;;;;6.15;5.55;;;;;;;;;;5092958;28;20689;-86
2021/09/05 08:45:53;;;;;;;8.05;7.22;;;;;;;;;;5092935;28;20306;-87
2021/09/05 08:48:38;;;;;;;5.00;4.55;;;;;;;;;;5093251;28;20181;-84
2021/09/05 08:51:06;;;;;;;8.57;7.35;;;;;;;;;;5030358;28;20277;-88
2021/09/05 08:53:33;;;;;;;7.63;6.85;;;;;;;;;;5064539;28;20233;-87
2021/09/05 08:56:05;;;;;;;6.45;5.82;;;;;;;;;;5072653;28;20253;-87
2021/09/05 08:58:33;;;;;;;4.55;4.15;;;;;;;;;;5072899;28;20313;-88
2021/09/05 09:01:18;;;;;;;4.57;4.18;;;;;;;;;;5073077;28;20246;-85
2021/09/05 09:03:47;;;;;;;4.20;3.80;;;;;;;;;;5090422;28;20180;-88
2021/09/05 09:06:21;;;;;;;4.95;4.38;;;;;;;;;;5078338;28;20678;-87
2021/09/05 09:09:01;;;;;;;5.82;5.07;;;;;;;;;;5072764;28;20186;-88
2021/09/05 09:14:59;;;;;;;4.82;4.32;;;;;;;;;;5121125;27;20598;-90
2021/09/05 09:18:19;;;;;;;5.85;4.30;;;;;;;;;;5111560;27;20245;-87
2021/09/05 09:20:47;;;;;;;5.38;4.22;;;;;;;;;;5110253;27;20268;-88
2021/09/05 09:23:25;;;;;;;4.13;3.83;;;;;;;;;;5108695;28;20196;-91
2021/09/05 09:26:07;;;;;;;4.95;4.40;;;;;;;;;;5090227;27;20664;-90
2021/09/05 09:28:48;;;;;;;5.10;4.60;;;;;;;;;;5090344;28;20579;-89
2021/09/05 09:31:33;;;;;;;3.90;3.58;;;;;;;;;;5089970;28;20180;-89
2021/09/05 09:34:24;;;;;;;3.95;3.60;;;;;;;;;;5089783;28;20721;-90
2021/09/05 09:37:28;;;;;;;3.83;3.47;;;;;;;;;;5089822;28;20683;-90
2021/09/05 09:40:01;;;;;;;4.40;4.00;;;;;;;;;;5090067;28;20196;-90
2021/09/05 09:42:39;;;;;;;5.22;4.72;;;;;;;;;;5104180;28;20252;-89
2021/09/05 09:45:12;;;;;;;5.40;4.88;;;;;;;;;;5110503;28;20198;-90
2021/09/05 09:47:46;;;;;;;6.13;5.55;;;;;;;;;;5110696;28;20567;-89
2021/09/05 09:50:18;;;;;;;4.50;4.10;;;;;;;;;;5108982;27;20560;-92
2021/09/05 09:52:46;;;;;;;5.68;5.18;;;;;;;;;;5109554;28;20606;-92
2021/09/05 09:55:19;;;;;;;7.53;5.05;;;;;;;;;;5110337;28;20180;-91
2021/09/05 09:58:13;;;;;;;7.00;6.40;;;;;;;;;;5110049;28;20267;-90
2021/09/05 10:00:47;;;;;;;6.53;5.93;;;;;;;;;;5089791;28;20719;-92
2021/09/05 10:03:17;;;;;;;6.68;6.07;;;;;;;;;;5096913;28;20210;-90
2021/09/05 10:05:46;;;;;;;6.20;5.60;;;;;;;;;;5109152;27;20220;-88
2021/09/05 10:08:14;;;;;;;6.20;5.68;;;;;;;;;;5108730;28;20196;-89
2021/09/05 10:10:42;;;;;;;7.65;6.85;;;;;;;;;;5100495;28;20190;-89
2021/09/05 10:13:10;;;;;;;5.53;5.00;;;;;;;;;;5104659;28;20234;-89
2021/09/05 10:15:38;;;;;;;4.72;4.32;;;;;;;;;;5104620;28;20216;-88
2021/09/05 10:18:06;;;;;;;5.50;5.00;;;;;;;;;;5088696;28;20197;-90
2021/09/05 10:20:35;;;;;;;5.40;4.90;;;;;;;;;;5097001;28;20267;-89
2021/09/05 10:23:13;;;;;;;5.88;5.38;;;;;;;;;;5108396;28;20192;-90
2021/09/05 10:25:55;;;;;;;5.50;5.00;;;;;;;;;;5096251;28;20235;-92
2021/09/05 10:28:47;;;;;;;5.88;5.38;;;;;;;;;;5095671;28;20646;-88
2021/09/05 10:31:38;;;;;;;5.45;4.95;;;;;;;;;;5095731;28;20196;-89
2021/09/05 10:34:31;;;;;;;6.93;6.32;;;;;;;;;;5095771;28;20208;-89
2021/09/05 10:37:08;;;;;;;6.47;5.90;;;;;;;;;;5088844;28;20258;-88
2021/09/05 10:39:35;;;;;;;7.10;6.45;;;;;;;;;;5082650;28;20191;-88
2021/09/05 10:42:03;;;;;;;6.88;6.25;;;;;;;;;;5094933;28;20200;-87
2021/09/05 10:45:01;;;;;;;6.45;5.68;;;;;;;;;;5094740;28;20192;-86
2021/09/05 10:47:44;;;;;;;4.97;4.53;;;;;;;;;;5075969;28;20600;-89
2021/09/05 10:50:34;;;;;;;6.45;5.85;;;;;;;;;;5074961;28;20216;-89
2021/09/05 10:53:20;;;;;;;4.75;4.35;;;;;;;;;;5094401;28;20688;-89
2021/09/05 10:56:11;;;;;;;5.43;4.90;;;;;;;;;;5094858;28;20212;-86
2021/09/05 10:58:46;;;;;;;5.53;5.03;;;;;;;;;;5095061;28;20199;-86
2021/09/05 11:01:27;;;;;;;5.70;5.22;;;;;;;;;;5095739;28;20188;-88
2021/09/05 11:04:22;;;;;;;4.28;3.97;;;;;;;;;;5096190;28;20204;-89
2021/09/05 11:06:52;;;;;;;4.95;4.53;;;;;;;;;;5082038;28;20238;-89
2021/09/05 11:09:50;;;;;;;5.28;4.88;;;;;;;;;;5095240;28;20204;-87
2021/09/05 11:12:40;;;;;;;5.70;5.20;;;;;;;;;;5094956;28;20276;-88
2021/09/05 11:15:32;;;;;;;4.82;4.43;;;;;;;;;;5094976;28;20212;-87
2021/09/05 11:17:59;;;;;;;6.10;5.50;;;;;;;;;;5079330;28;20205;-86
2021/09/05 11:20:42;;;;;;;6.07;5.57;;;;;;;;;;5094442;28;20575;-88
2021/09/05 11:23:09;;;;;;;5.68;5.18;;;;;;;;;;5094656;28;20282;-87
2021/09/05 11:25:42;;;;;;;5.70;5.22;;;;;;;;;;5094811;28;20239;-88
2021/09/05 11:28:31;;;;;;;8.55;6.28;;;;;;;;;;5095138;28;20208;-88
2021/09/05 11:31:00;;;;;;;7.10;5.55;;;;;;;;;;5094608;28;20192;-86
2021/09/05 11:33:29;;;;;;;6.35;5.75;;;;;;;;;;5075420;28;20189;-85
2021/09/05 11:35:57;;;;;;;5.97;5.47;;;;;;;;;;5073323;28;20586;-86
2021/09/05 11:38:29;;;;;;;4.97;4.57;;;;;;;;;;5078504;28;20195;-86
2021/09/05 11:40:58;;;;;;;5.72;5.15;;;;;;;;;;5094104;28;20193;-86
2021/09/05 11:43:32;;;;;;;5.20;4.78;;;;;;;;;;5093857;28;20185;-85
2021/09/05 11:45:59;;;;;;;5.13;4.72;;;;;;;;;;5089604;28;20223;-84
2021/09/05 11:48:28;;;;;;;6.60;5.88;;;;;;;;;;5087704;28;20204;-85
2021/09/05 11:51:06;;;;;;;6.80;6.22;;;;;;;;;;5080307;28;20223;-86
2021/09/05 11:53:34;;;;;;;8.10;7.30;;;;;;;;;;5073082;28;20200;-85
2021/09/05 11:56:03;;;;;;;5.85;5.35;;;;;;;;;;5072668;28;20225;-86
2021/09/05 11:58:30;;;;;;;7.32;6.47;;;;;;;;;;5073441;28;20185;-85
2021/09/05 12:00:58;;;;;;;7.00;6.40;;;;;;;;;;5093249;28;20580;-84
2021/09/05 12:03:29;;;;;;;5.88;5.38;;;;;;;;;;5093450;28;20723;-86
2021/09/05 12:05:57;;;;;;;5.55;5.05;;;;;;;;;;5093572;28;20307;-85
2021/09/05 12:08:24;;;;;;;6.80;6.20;;;;;;;;;;5093486;28;20204;-85
2021/09/05 12:11:05;;;;;;;6.10;5.60;;;;;;;;;;5091251;28;20192;-85
2021/09/05 12:13:50;;;;;;;6.75;6.18;;;;;;;;;;5072876;28;20730;-85
2021/09/05 12:16:23;;;;;;;6.70;6.10;;;;;;;;;;5072872;28;20221;-86
2021/09/05 12:19:10;;;;;;;5.70;5.20;;;;;;;;;;5084188;28;20199;-88
2021/09/05 12:21:40;;;;;;;5.15;4.75;;;;;;;;;;5093478;28;20201;-86
2021/09/05 12:24:16;;;;;;;6.13;5.63;;;;;;;;;;5093710;28;20185;-85
2021/09/05 12:26:44;;;;;;;6.70;6.10;;;;;;;;;;5093110;28;20858;-84
2021/09/05 12:29:13;;;;;;;7.25;6.55;;;;;;;;;;5092943;28;20200;-84
2021/09/05 12:31:43;;;;;;;8.95;8.05;;;;;;;;;;5094000;28;20631;-84
2021/09/05 12:34:11;;;;;;;7.93;7.22;;;;;;;;;;5093776;28;20214;-84
2021/09/05 12:36:39;;;;;;;7.47;6.80;;;;;;;;;;5093910;28;20220;-83
2021/09/05 12:39:07;;;;;;;6.63;6.13;;;;;;;;;;5092883;28;20211;-85
2021/09/05 12:41:34;;;;;;;6.57;5.43;;;;;;;;;;5092553;28;20784;-84
2021/09/05 12:44:06;;;;;;;6.00;5.50;;;;;;;;;;5093364;28;20271;-84
2021/09/05 12:46:39;;;;;;;5.30;4.90;;;;;;;;;;5093353;28;20224;-84
2021/09/05 12:49:13;;;;;;;5.85;5.35;;;;;;;;;;5092951;28;20275;-84
2021/09/05 12:51:49;;;;;;;5.80;5.30;;;;;;;;;;5093130;28;20602;-85
2021/09/05 12:54:17;;;;;;;6.57;5.93;;;;;;;;;;5093100;28;20184;-83
2021/09/05 12:56:53;;;;;;;7.68;6.90;;;;;;;;;;5093212;28;20732;-84
2021/09/05 12:59:22;;;;;;;6.78;6.18;;;;;;;;;;5091747;28;20297;-84
2021/09/05 13:01:50;;;;;;;6.50;5.90;;;;;;;;;;5093022;28;20287;-84
2021/09/05 13:04:17;;;;;;;6.70;6.10;;;;;;;;;;5092929;28;20278;-85
2021/09/05 13:06:45;;;;;;;7.20;6.60;;;;;;;;;;5093012;28;20223;-84
2021/09/05 13:09:12;;;;;;;6.32;5.72;;;;;;;;;;5093546;28;20188;-84
2021/09/05 13:11:43;;;;;;;5.90;5.35;;;;;;;;;;5093069;28;20571;-85
2021/09/05 13:14:11;;;;;;;5.38;4.97;;;;;;;;;;5092377;28;20315;-84
2021/09/05 13:16:40;;;;;;;5.30;4.80;;;;;;;;;;5092678;28;20226;-85
2021/09/05 13:19:08;;;;;;;5.38;4.88;;;;;;;;;;5074325;28;20197;-84
2021/09/05 13:21:35;;;;;;;7.07;5.88;;;;;;;;;;5072416;28;20186;-84
2021/09/05 13:24:03;;;;;;;5.38;4.88;;;;;;;;;;5072610;28;20185;-84
2021/09/05 13:26:30;;;;;;;6.40;5.80;;;;;;;;;;5072152;28;20225;-85
2021/09/05 13:28:59;;;;;;;5.32;4.82;;;;;;;;;;5074682;28;20208;-84
2021/09/05 13:38:16;;;;;;;6.70;5.95;;;;;;;;;;4976077;28;20258;-85
2021/09/05 13:40:44;;;;;;;7.43;6.70;;;;;;;;;;5112040;28;20283;-85
2021/09/05 13:43:11;;;;;;;6.97;6.38;;;;;;;;;;5108397;28;20276;-83
2021/09/05 13:45:52;;;;;;;5.63;5.13;;;;;;;;;;5090372;28;20593;-85
2021/09/05 13:48:20;;;;;;;4.45;4.15;;;;;;;;;;5106630;28;20212;-84
2021/09/05 13:50:48;;;;;;;5.70;5.20;;;;;;;;;;5112046;28;20753;-84
2021/09/05 13:53:18;;;;;;;5.30;4.82;;;;;;;;;;5105502;28;20744;-85
2021/09/05 13:59:22;;;;;;;6.38;5.70;;;;;;;;;;5053252;28;20582;-84
2021/09/05 14:01:49;;;;;;;6.72;6.03;;;;;;;;;;5096721;28;20180;-84
2021/09/05 14:04:17;;;;;;;6.85;6.22;;;;;;;;;;5112586;28;20192;-84
2021/09/05 14:06:46;;;;;;;6.97;6.38;;;;;;;;;;5116085;28;20230;-85
2021/09/05 14:09:15;;;;;;;7.25;6.65;;;;;;;;;;5116297;28;20694;-85
2021/09/05 14:11:42;;;;;;;8.05;7.28;;;;;;;;;;5115955;28;20204;-85
2021/09/05 14:14:10;;;;;;;7.15;6.55;;;;;;;;;;5096839;28;20231;-84
2021/09/05 14:16:37;;;;;;;7.07;6.47;;;;;;;;;;5097865;28;20229;-84
2021/09/05 14:19:05;;;;;;;6.55;5.95;;;;;;;;;;5075346;28;20192;-84
2021/09/05 14:21:32;;;;;;;7.13;6.53;;;;;;;;;;5089362;28;20210;-84
2021/09/05 14:24:01;;;;;;;7.30;6.60;;;;;;;;;;5095604;28;20211;-84
2021/09/05 14:26:32;;;;;;;7.88;7.18;;;;;;;;;;5095865;28;20240;-83
2021/09/05 14:29:14;;;;;;;6.80;6.20;;;;;;;;;;5114353;28;20204;-83
2021/09/05 14:31:50;;;;;;;6.18;5.60;;;;;;;;;;5107622;28;20216;-83
2021/09/05 14:48:12;;;;;;;7.38;6.68;;;;;;;;;;5095002;28;20226;-84
2021/09/05 14:50:44;;;;;;;6.13;5.60;;;;;;;;;;5095190;28;20189;-84
2021/09/05 14:55:58;;;;;;;7.75;7.05;;;;;;;;;;5085733;28;20653;-83
2021/09/05 14:58:27;;;;;;;7.05;6.35;;;;;;;;;;5115458;28;20182;-84
2021/09/05 15:00:59;;;;;;;7.75;7.00;;;;;;;;;;5100744;28;20196;-84
2021/09/05 15:03:33;;;;;;;7.05;6.43;;;;;;;;;;5095576;28;20192;-86
2021/09/05 15:11:38;;;;;;;6.28;5.78;;;;;;;;;;5095571;28;20333;-85
2021/09/05 15:14:10;;;;;;;5.22;4.72;;;;;;;;;;5101878;28;20265;-84
2021/09/05 15:16:38;;;;;;;6.32;5.72;;;;;;;;;;5115137;28;20575;-85
2021/09/05 15:19:06;;;;;;;5.68;5.18;;;;;;;;;;5100744;28;20189;-84
2021/09/05 15:21:41;;;;;;;6.85;6.25;;;;;;;;;;5094690;28;20185;-85
2021/09/05 15:24:11;;;;;;;7.75;7.05;;;;;;;;;;5095730;28;20227;-85
2021/09/05 15:26:38;;;;;;;7.43;6.72;;;;;;;;;;5095618;28;20231;-85
2021/09/05 15:29:23;;;;;;;6.93;6.22;;;;;;;;;;5095231;28;20224;-85
2021/09/05 15:31:57;;;;;;;7.10;6.40;;;;;;;;;;5095885;28;20192;-84
2021/09/05 15:34:45;;;;;;;8.80;7.90;;;;;;;;;;5101509;28;20212;-85
2021/09/05 15:51:27;;;;;;;7.68;6.97;;;;;;;;;;5093686;28;20200;-84
2021/09/05 15:54:17;;;;;;;8.05;7.25;;;;;;;;;;5084057;28;20208;-85
2021/09/05 15:56:44;;;;;;;7.57;6.88;;;;;;;;;;5097438;28;20860;-85
2021/09/05 15:59:15;;;;;;;7.18;6.50;;;;;;;;;;5107019;28;20599;-84
2021/09/05 16:01:47;;;;;;;6.15;5.60;;;;;;;;;;5093027;28;20204;-83